sensor_id;sensor_type;location;lat;lon;timestamp;temperature;humidity
41678;DHT22;27364;49.026;8.712;2022-08-18T00:00:15;21.80;99.90
41678;DHT22;27364;49.026;8.712;2022-08-18T00:02:41;21.70;99.90
41678;DHT22;27364;49.026;8.712;2022-08-18T00:05:09;21.70;99.90
41678;DHT22;27364;49.026;8.712;2022-08-18T00:07:37;21.60;99.90
41678;DHT22;27364;49.026;8.712;2022-08-18T00:10:04;21.60;99.90
41678;DHT22;27364;49.026;8.712;2022-08-18T00:12:36;21.50;99.90
41678;DHT22;27364;49.026;8.712;2022-08-18T00:15:06;21.50;99.90
41678;DHT22;27364;49.026;8.712;2022-08-18T00:17:33;21.40;99.90
41678;DHT22;27364;49.026;8.712;2022-08-18T00:20:00;21.40;99.90
41678;DHT22;27364;49.026;8.712;2022-08-18T00:22:25;21.30;99.90
41678;DHT22;27364;49.026;8.712;2022-08-18T00:24:53;21.30;99.90
41678;DHT22;27364;49.026;8.712;2022-08-18T00:27:24;21.20;99.90
41678;DHT22;27364;49.026;8.712;2022-08-18T00:29:52;21.20;99.90
41678;DHT22;27364;49.026;8.712;2022-08-18T00:32:19;21.20;99.90
41678;DHT22;27364;49.026;8.712;2022-08-18T00:34:45;21.20;99.90
41678;DHT22;27364;49.026;8.712;2022-08-18T00:37:11;21.20;99.90
41678;DHT22;27364;49.026;8.712;2022-08-18T00:39:36;21.20;99.90
41678;DHT22;27364;49.026;8.712;2022-08-18T00:42:31;21.20;99.90
41678;DHT22;27364;49.026;8.712;2022-08-18T00:45:00;21.10;99.90
41678;DHT22;27364;49.026;8.712;2022-08-18T00:47:26;21.10;99.90
41678;DHT22;27364;49.026;8.712;2022-08-18T00:49:53;21.10;99.90
41678;DHT22;27364;49.026;8.712;2022-08-18T00:52:20;21.10;99.90
41678;DHT22;27364;49.026;8.712;2022-08-18T00:54:47;21.00;99.90
41678;DHT22;27364;49.026;8.712;2022-08-18T00:57:15;21.10;99.90
41678;DHT22;27364;49.026;8.712;2022-08-18T01:00:00;21.10;99.90
41678;DHT22;27364;49.026;8.712;2022-08-18T01:02:40;21.10;99.90
41678;DHT22;27364;49.026;8.712;2022-08-18T01:07:48;21.00;99.90
41678;DHT22;27364;49.026;8.712;2022-08-18T01:10:17;20.90;99.90
41678;DHT22;27364;49.026;8.712;2022-08-18T01:12:45;20.90;99.90
41678;DHT22;27364;49.026;8.712;2022-08-18T01:15:12;20.90;99.90
41678;DHT22;27364;49.026;8.712;2022-08-18T01:17:39;20.80;99.90
41678;DHT22;27364;49.026;8.712;2022-08-18T01:20:32;20.80;99.90
41678;DHT22;27364;49.026;8.712;2022-08-18T01:23:19;20.80;99.90
41678;DHT22;27364;49.026;8.712;2022-08-18T01:25:47;20.70;99.90
41678;DHT22;27364;49.026;8.712;2022-08-18T01:28:27;20.70;99.90
41678;DHT22;27364;49.026;8.712;2022-08-18T01:30:55;20.70;99.90
41678;DHT22;27364;49.026;8.712;2022-08-18T01:33:27;20.70;99.90
41678;DHT22;27364;49.026;8.712;2022-08-18T01:36:00;20.70;99.90
41678;DHT22;27364;49.026;8.712;2022-08-18T01:38:27;20.60;99.90
41678;DHT22;27364;49.026;8.712;2022-08-18T01:40:56;20.60;99.90
41678;DHT22;27364;49.026;8.712;2022-08-18T01:43:23;20.50;99.90
41678;DHT22;27364;49.026;8.712;2022-08-18T01:45:49;20.50;99.90
41678;DHT22;27364;49.026;8.712;2022-08-18T01:48:15;20.50;99.90
41678;DHT22;27364;49.026;8.712;2022-08-18T01:50:41;20.50;99.90
41678;DHT22;27364;49.026;8.712;2022-08-18T01:53:08;20.40;99.90
41678;DHT22;27364;49.026;8.712;2022-08-18T01:55:37;20.40;99.90
41678;DHT22;27364;49.026;8.712;2022-08-18T01:58:03;20.40;99.90
41678;DHT22;27364;49.026;8.712;2022-08-18T02:00:31;20.40;99.90
41678;DHT22;27364;49.026;8.712;2022-08-18T02:02:57;20.40;99.90
41678;DHT22;27364;49.026;8.712;2022-08-18T02:05:31;20.40;99.90
41678;DHT22;27364;49.026;8.712;2022-08-18T02:07:58;20.30;99.90
41678;DHT22;27364;49.026;8.712;2022-08-18T02:10:24;20.40;99.90
41678;DHT22;27364;49.026;8.712;2022-08-18T02:12:49;20.40;99.90
41678;DHT22;27364;49.026;8.712;2022-08-18T02:15:15;20.40;99.90
41678;DHT22;27364;49.026;8.712;2022-08-18T02:17:42;20.30;99.90
41678;DHT22;27364;49.026;8.712;2022-08-18T02:20:09;20.30;99.90
41678;DHT22;27364;49.026;8.712;2022-08-18T02:22:35;20.30;99.90
41678;DHT22;27364;49.026;8.712;2022-08-18T02:25:01;20.40;99.90
41678;DHT22;27364;49.026;8.712;2022-08-18T02:27:27;20.40;99.90
41678;DHT22;27364;49.026;8.712;2022-08-18T02:29:53;20.30;99.90
41678;DHT22;27364;49.026;8.712;2022-08-18T02:32:19;20.30;99.90
41678;DHT22;27364;49.026;8.712;2022-08-18T02:34:44;20.30;99.90
41678;DHT22;27364;49.026;8.712;2022-08-18T02:37:10;20.30;99.90
41678;DHT22;27364;49.026;8.712;2022-08-18T02:39:36;20.30;99.90
41678;DHT22;27364;49.026;8.712;2022-08-18T02:42:03;20.20;99.90
41678;DHT22;27364;49.026;8.712;2022-08-18T02:44:29;20.20;99.90
41678;DHT22;27364;49.026;8.712;2022-08-18T02:46:56;20.20;99.90
41678;DHT22;27364;49.026;8.712;2022-08-18T02:49:22;20.10;99.90
41678;DHT22;27364;49.026;8.712;2022-08-18T02:51:50;20.10;99.90
41678;DHT22;27364;49.026;8.712;2022-08-18T02:54:20;20.10;99.90
41678;DHT22;27364;49.026;8.712;2022-08-18T02:56:48;20.00;99.90
41678;DHT22;27364;49.026;8.712;2022-08-18T02:59:17;20.00;99.90
41678;DHT22;27364;49.026;8.712;2022-08-18T03:01:46;19.90;99.90
41678;DHT22;27364;49.026;8.712;2022-08-18T03:04:15;19.90;99.90
41678;DHT22;27364;49.026;8.712;2022-08-18T03:06:42;19.90;99.90
41678;DHT22;27364;49.026;8.712;2022-08-18T03:09:09;19.90;99.90
41678;DHT22;27364;49.026;8.712;2022-08-18T03:11:35;19.90;99.90
41678;DHT22;27364;49.026;8.712;2022-08-18T03:14:01;19.90;99.90
41678;DHT22;27364;49.026;8.712;2022-08-18T03:16:27;19.90;99.90
41678;DHT22;27364;49.026;8.712;2022-08-18T03:18:56;20.00;99.90
41678;DHT22;27364;49.026;8.712;2022-08-18T03:21:23;20.00;99.90
41678;DHT22;27364;49.026;8.712;2022-08-18T03:23:49;20.00;99.90
41678;DHT22;27364;49.026;8.712;2022-08-18T03:26:17;20.00;99.90
41678;DHT22;27364;49.026;8.712;2022-08-18T03:28:45;20.00;99.90
41678;DHT22;27364;49.026;8.712;2022-08-18T03:31:12;20.00;99.90
41678;DHT22;27364;49.026;8.712;2022-08-18T03:33:40;19.90;99.90
41678;DHT22;27364;49.026;8.712;2022-08-18T03:36:08;19.90;99.90
41678;DHT22;27364;49.026;8.712;2022-08-18T03:38:34;19.90;99.90
41678;DHT22;27364;49.026;8.712;2022-08-18T03:41:00;19.90;99.90
41678;DHT22;27364;49.026;8.712;2022-08-18T03:43:25;19.90;99.90
41678;DHT22;27364;49.026;8.712;2022-08-18T03:45:52;19.80;99.90
41678;DHT22;27364;49.026;8.712;2022-08-18T03:48:19;19.80;99.90
41678;DHT22;27364;49.026;8.712;2022-08-18T03:50:46;19.80;99.90
41678;DHT22;27364;49.026;8.712;2022-08-18T03:53:12;19.80;99.90
41678;DHT22;27364;49.026;8.712;2022-08-18T03:55:41;19.80;99.90
41678;DHT22;27364;49.026;8.712;2022-08-18T03:58:07;19.80;99.90
41678;DHT22;27364;49.026;8.712;2022-08-18T04:00:36;19.80;99.90
41678;DHT22;27364;49.026;8.712;2022-08-18T04:03:02;19.70;99.90
41678;DHT22;27364;49.026;8.712;2022-08-18T04:05:28;19.70;99.90
41678;DHT22;27364;49.026;8.712;2022-08-18T04:07:54;19.70;99.90
41678;DHT22;27364;49.026;8.712;2022-08-18T04:10:22;19.70;99.90
41678;DHT22;27364;49.026;8.712;2022-08-18T04:12:47;19.70;99.90
41678;DHT22;27364;49.026;8.712;2022-08-18T04:15:13;19.70;99.90
41678;DHT22;27364;49.026;8.712;2022-08-18T04:17:39;19.70;99.90
41678;DHT22;27364;49.026;8.712;2022-08-18T04:20:05;19.70;99.90
41678;DHT22;27364;49.026;8.712;2022-08-18T04:22:30;19.70;99.90
41678;DHT22;27364;49.026;8.712;2022-08-18T04:24:59;19.80;99.90
41678;DHT22;27364;49.026;8.712;2022-08-18T04:27:26;19.80;99.90
41678;DHT22;27364;49.026;8.712;2022-08-18T04:29:51;19.80;99.90
41678;DHT22;27364;49.026;8.712;2022-08-18T04:32:18;19.80;99.90
41678;DHT22;27364;49.026;8.712;2022-08-18T04:34:44;19.80;99.90
41678;DHT22;27364;49.026;8.712;2022-08-18T04:37:10;19.80;99.90
41678;DHT22;27364;49.026;8.712;2022-08-18T04:39:36;19.80;99.90
41678;DHT22;27364;49.026;8.712;2022-08-18T04:42:02;19.70;99.90
41678;DHT22;27364;49.026;8.712;2022-08-18T04:44:29;19.70;99.90
41678;DHT22;27364;49.026;8.712;2022-08-18T04:46:54;19.70;99.90
41678;DHT22;27364;49.026;8.712;2022-08-18T04:49:22;19.60;99.90
41678;DHT22;27364;49.026;8.712;2022-08-18T04:51:50;19.70;99.90
41678;DHT22;27364;49.026;8.712;2022-08-18T04:54:39;19.60;99.90
41678;DHT22;27364;49.026;8.712;2022-08-18T04:57:10;19.60;99.90
41678;DHT22;27364;49.026;8.712;2022-08-18T04:59:36;19.60;99.90
41678;DHT22;27364;49.026;8.712;2022-08-18T05:02:03;19.50;99.90
41678;DHT22;27364;49.026;8.712;2022-08-18T05:04:36;19.60;99.90
41678;DHT22;27364;49.026;8.712;2022-08-18T05:07:06;19.60;99.90
41678;DHT22;27364;49.026;8.712;2022-08-18T05:09:32;19.60;99.90
41678;DHT22;27364;49.026;8.712;2022-08-18T05:11:58;19.60;99.90
41678;DHT22;27364;49.026;8.712;2022-08-18T05:14:25;19.60;99.90
41678;DHT22;27364;49.026;8.712;2022-08-18T05:16:51;19.60;99.90
41678;DHT22;27364;49.026;8.712;2022-08-18T05:19:19;19.70;99.90
41678;DHT22;27364;49.026;8.712;2022-08-18T05:21:50;19.70;99.90
41678;DHT22;27364;49.026;8.712;2022-08-18T05:24:16;19.70;99.90
41678;DHT22;27364;49.026;8.712;2022-08-18T05:26:42;19.70;99.90
41678;DHT22;27364;49.026;8.712;2022-08-18T05:29:08;19.70;99.90
41678;DHT22;27364;49.026;8.712;2022-08-18T05:31:33;19.70;99.90
41678;DHT22;27364;49.026;8.712;2022-08-18T05:33:59;19.80;99.90
41678;DHT22;27364;49.026;8.712;2022-08-18T05:39:26;19.80;99.90
41678;DHT22;27364;49.026;8.712;2022-08-18T05:44:31;19.80;99.90
41678;DHT22;27364;49.026;8.712;2022-08-18T05:47:04;19.80;99.90
41678;DHT22;27364;49.026;8.712;2022-08-18T05:49:30;19.90;99.90
41678;DHT22;27364;49.026;8.712;2022-08-18T05:52:11;19.80;99.90
41678;DHT22;27364;49.026;8.712;2022-08-18T05:54:41;19.90;99.90
41678;DHT22;27364;49.026;8.712;2022-08-18T05:57:30;19.90;99.90
41678;DHT22;27364;49.026;8.712;2022-08-18T05:59:57;19.90;99.90
41678;DHT22;27364;49.026;8.712;2022-08-18T06:02:48;19.90;99.90
41678;DHT22;27364;49.026;8.712;2022-08-18T06:05:34;19.90;99.90
41678;DHT22;27364;49.026;8.712;2022-08-18T06:10:32;19.90;99.90
41678;DHT22;27364;49.026;8.712;2022-08-18T06:12:59;20.00;99.90
41678;DHT22;27364;49.026;8.712;2022-08-18T06:18:21;20.00;99.90
41678;DHT22;27364;49.026;8.712;2022-08-18T06:21:10;20.00;99.90
41678;DHT22;27364;49.026;8.712;2022-08-18T06:23:44;20.00;99.90
41678;DHT22;27364;49.026;8.712;2022-08-18T06:26:49;20.00;99.90
41678;DHT22;27364;49.026;8.712;2022-08-18T06:35:20;20.20;99.90
41678;DHT22;27364;49.026;8.712;2022-08-18T06:41:20;20.20;99.90
41678;DHT22;27364;49.026;8.712;2022-08-18T06:44:02;20.30;99.90
41678;DHT22;27364;49.026;8.712;2022-08-18T06:49:04;20.30;99.90
41678;DHT22;27364;49.026;8.712;2022-08-18T06:51:31;20.40;99.90
41678;DHT22;27364;49.026;8.712;2022-08-18T06:54:01;20.40;99.90
41678;DHT22;27364;49.026;8.712;2022-08-18T06:59:27;20.50;99.90
41678;DHT22;27364;49.026;8.712;2022-08-18T07:04:31;20.60;99.90
41678;DHT22;27364;49.026;8.712;2022-08-18T07:06:57;20.70;99.90
41678;DHT22;27364;49.026;8.712;2022-08-18T07:09:25;20.60;99.90
41678;DHT22;27364;49.026;8.712;2022-08-18T07:14:27;20.70;99.90
41678;DHT22;27364;49.026;8.712;2022-08-18T07:17:33;20.80;99.90
41678;DHT22;27364;49.026;8.712;2022-08-18T07:22:30;20.80;99.90
41678;DHT22;27364;49.026;8.712;2022-08-18T07:24:58;20.80;99.90
41678;DHT22;27364;49.026;8.712;2022-08-18T07:27:48;20.80;99.90
41678;DHT22;27364;49.026;8.712;2022-08-18T07:32:52;20.80;99.90
41678;DHT22;27364;49.026;8.712;2022-08-18T07:35:23;20.90;99.90
41678;DHT22;27364;49.026;8.712;2022-08-18T07:37:57;20.80;99.90
41678;DHT22;27364;49.026;8.712;2022-08-18T07:43:24;20.80;99.90
41678;DHT22;27364;49.026;8.712;2022-08-18T07:46:07;20.80;99.90
41678;DHT22;27364;49.026;8.712;2022-08-18T07:48:36;20.80;99.90
41678;DHT22;27364;49.026;8.712;2022-08-18T07:51:23;20.80;99.90
41678;DHT22;27364;49.026;8.712;2022-08-18T07:56:22;20.80;99.90
41678;DHT22;27364;49.026;8.712;2022-08-18T08:01:46;20.80;99.90
41678;DHT22;27364;49.026;8.712;2022-08-18T08:04:35;20.80;99.90
41678;DHT22;27364;49.026;8.712;2022-08-18T08:07:08;20.70;99.90
41678;DHT22;27364;49.026;8.712;2022-08-18T08:10:00;20.70;99.90
41678;DHT22;27364;49.026;8.712;2022-08-18T08:15:40;20.70;99.90
41678;DHT22;27364;49.026;8.712;2022-08-18T08:21:00;20.70;99.90
41678;DHT22;27364;49.026;8.712;2022-08-18T08:26:19;20.50;99.90
41678;DHT22;27364;49.026;8.712;2022-08-18T08:34:18;20.50;99.90
41678;DHT22;27364;49.026;8.712;2022-08-18T08:36:46;20.50;99.90
41678;DHT22;27364;49.026;8.712;2022-08-18T08:39:26;20.50;99.90
41678;DHT22;27364;49.026;8.712;2022-08-18T08:41:59;20.50;99.90
41678;DHT22;27364;49.026;8.712;2022-08-18T08:44:37;20.60;99.90
41678;DHT22;27364;49.026;8.712;2022-08-18T08:47:29;20.60;99.90
41678;DHT22;27364;49.026;8.712;2022-08-18T08:50:06;20.60;99.90
41678;DHT22;27364;49.026;8.712;2022-08-18T08:52:49;20.70;99.90
41678;DHT22;27364;49.026;8.712;2022-08-18T08:55:22;20.80;99.90
41678;DHT22;27364;49.026;8.712;2022-08-18T09:00:38;20.90;99.90
41678;DHT22;27364;49.026;8.712;2022-08-18T09:11:46;21.00;99.90
41678;DHT22;27364;49.026;8.712;2022-08-18T09:14:44;20.90;99.90
41678;DHT22;27364;49.026;8.712;2022-08-18T09:22:50;21.20;99.90
41678;DHT22;27364;49.026;8.712;2022-08-18T09:41:55;22.50;99.90
41678;DHT22;27364;49.026;8.712;2022-08-18T09:57:27;22.40;99.90
41678;DHT22;27364;49.026;8.712;2022-08-18T09:59:56;22.40;99.90
41678;DHT22;27364;49.026;8.712;2022-08-18T10:07:52;22.40;99.90
41678;DHT22;27364;49.026;8.712;2022-08-18T10:21:19;22.50;99.90
41678;DHT22;27364;49.026;8.712;2022-08-18T10:23:59;22.50;99.90
41678;DHT22;27364;49.026;8.712;2022-08-18T10:34:47;22.80;99.90
41678;DHT22;27364;49.026;8.712;2022-08-18T10:42:32;22.90;99.90
41678;DHT22;27364;49.026;8.712;2022-08-18T10:45:13;23.00;99.90
41678;DHT22;27364;49.026;8.712;2022-08-18T10:47:39;23.10;99.90
41678;DHT22;27364;49.026;8.712;2022-08-18T10:50:19;23.10;99.90
41678;DHT22;27364;49.026;8.712;2022-08-18T10:53:18;23.10;99.90
41678;DHT22;27364;49.026;8.712;2022-08-18T10:55:50;23.20;99.90
41678;DHT22;27364;49.026;8.712;2022-08-18T10:58:35;23.40;99.90
41678;DHT22;27364;49.026;8.712;2022-08-18T11:01:41;23.60;99.90
41678;DHT22;27364;49.026;8.712;2022-08-18T11:04:45;23.60;99.90
41678;DHT22;27364;49.026;8.712;2022-08-18T11:07:20;23.60;99.90
41678;DHT22;27364;49.026;8.712;2022-08-18T11:09:57;23.60;99.90
41678;DHT22;27364;49.026;8.712;2022-08-18T11:16:02;23.70;99.90
41678;DHT22;27364;49.026;8.712;2022-08-18T11:18:40;23.80;99.90
41678;DHT22;27364;49.026;8.712;2022-08-18T11:26:32;23.80;99.90
41678;DHT22;27364;49.026;8.712;2022-08-18T11:29:23;23.80;99.90
41678;DHT22;27364;49.026;8.712;2022-08-18T11:31:52;23.90;99.90
41678;DHT22;27364;49.026;8.712;2022-08-18T11:34:30;24.00;99.90
41678;DHT22;27364;49.026;8.712;2022-08-18T11:37:01;24.10;99.90
41678;DHT22;27364;49.026;8.712;2022-08-18T11:39:28;24.20;99.90
41678;DHT22;27364;49.026;8.712;2022-08-18T11:41:54;24.30;99.90
41678;DHT22;27364;49.026;8.712;2022-08-18T11:44:24;24.30;99.90
41678;DHT22;27364;49.026;8.712;2022-08-18T11:46:54;24.40;99.90
41678;DHT22;27364;49.026;8.712;2022-08-18T11:49:31;24.50;99.90
41678;DHT22;27364;49.026;8.712;2022-08-18T11:52:00;24.60;99.90
41678;DHT22;27364;49.026;8.712;2022-08-18T11:54:39;24.70;99.90
41678;DHT22;27364;49.026;8.712;2022-08-18T11:57:29;24.80;99.90
41678;DHT22;27364;49.026;8.712;2022-08-18T11:59:55;25.10;99.90
41678;DHT22;27364;49.026;8.712;2022-08-18T12:02:23;25.20;99.90
41678;DHT22;27364;49.026;8.712;2022-08-18T12:05:00;25.30;99.90
41678;DHT22;27364;49.026;8.712;2022-08-18T12:07:30;25.30;99.90
41678;DHT22;27364;49.026;8.712;2022-08-18T12:10:15;25.20;99.90
41678;DHT22;27364;49.026;8.712;2022-08-18T12:12:47;25.10;99.90
41678;DHT22;27364;49.026;8.712;2022-08-18T12:17:40;25.10;99.90
41678;DHT22;27364;49.026;8.712;2022-08-18T12:20:07;25.30;99.90
41678;DHT22;27364;49.026;8.712;2022-08-18T12:22:38;25.30;99.90
41678;DHT22;27364;49.026;8.712;2022-08-18T12:25:06;25.40;99.90
41678;DHT22;27364;49.026;8.712;2022-08-18T12:27:33;25.40;99.90
41678;DHT22;27364;49.026;8.712;2022-08-18T12:29:59;25.40;99.90
41678;DHT22;27364;49.026;8.712;2022-08-18T12:32:29;25.40;99.90
41678;DHT22;27364;49.026;8.712;2022-08-18T12:34:56;25.50;99.90
41678;DHT22;27364;49.026;8.712;2022-08-18T12:37:24;25.40;99.90
41678;DHT22;27364;49.026;8.712;2022-08-18T12:39:51;25.50;99.90
41678;DHT22;27364;49.026;8.712;2022-08-18T12:42:17;25.70;99.90
41678;DHT22;27364;49.026;8.712;2022-08-18T12:44:43;25.70;99.30
41678;DHT22;27364;49.026;8.712;2022-08-18T12:47:11;25.80;99.20
41678;DHT22;27364;49.026;8.712;2022-08-18T12:49:37;25.90;99.70
41678;DHT22;27364;49.026;8.712;2022-08-18T12:52:03;26.00;99.10
41678;DHT22;27364;49.026;8.712;2022-08-18T12:54:29;25.90;98.80
41678;DHT22;27364;49.026;8.712;2022-08-18T12:56:56;26.00;99.60
41678;DHT22;27364;49.026;8.712;2022-08-18T12:59:23;26.10;99.20
41678;DHT22;27364;49.026;8.712;2022-08-18T13:01:49;26.20;99.20
41678;DHT22;27364;49.026;8.712;2022-08-18T13:04:15;26.20;98.70
41678;DHT22;27364;49.026;8.712;2022-08-18T13:06:52;26.30;98.10
41678;DHT22;27364;49.026;8.712;2022-08-18T13:09:19;26.30;97.20
41678;DHT22;27364;49.026;8.712;2022-08-18T13:11:45;26.30;97.30
41678;DHT22;27364;49.026;8.712;2022-08-18T13:14:11;26.50;97.80
41678;DHT22;27364;49.026;8.712;2022-08-18T13:16:40;26.60;96.90
41678;DHT22;27364;49.026;8.712;2022-08-18T13:19:07;26.60;96.00
41678;DHT22;27364;49.026;8.712;2022-08-18T13:21:33;26.80;96.10
41678;DHT22;27364;49.026;8.712;2022-08-18T13:24:00;26.80;95.20
41678;DHT22;27364;49.026;8.712;2022-08-18T13:26:29;26.70;95.70
41678;DHT22;27364;49.026;8.712;2022-08-18T13:28:55;26.80;95.40
41678;DHT22;27364;49.026;8.712;2022-08-18T13:31:21;26.90;94.60
41678;DHT22;27364;49.026;8.712;2022-08-18T13:33:47;26.90;93.90
41678;DHT22;27364;49.026;8.712;2022-08-18T13:36:12;27.10;92.90
41678;DHT22;27364;49.026;8.712;2022-08-18T13:38:38;27.10;92.60
41678;DHT22;27364;49.026;8.712;2022-08-18T13:41:07;27.20;92.20
41678;DHT22;27364;49.026;8.712;2022-08-18T13:43:38;27.30;91.80
41678;DHT22;27364;49.026;8.712;2022-08-18T13:46:07;27.30;91.70
41678;DHT22;27364;49.026;8.712;2022-08-18T13:48:33;27.40;91.50
41678;DHT22;27364;49.026;8.712;2022-08-18T13:50:59;27.50;91.40
41678;DHT22;27364;49.026;8.712;2022-08-18T13:53:26;27.50;91.20
41678;DHT22;27364;49.026;8.712;2022-08-18T13:55:54;27.60;91.90
41678;DHT22;27364;49.026;8.712;2022-08-18T13:58:22;27.70;91.10
41678;DHT22;27364;49.026;8.712;2022-08-18T14:00:50;27.60;91.20
41678;DHT22;27364;49.026;8.712;2022-08-18T14:03:18;27.70;90.50
41678;DHT22;27364;49.026;8.712;2022-08-18T14:05:48;27.60;90.50
41678;DHT22;27364;49.026;8.712;2022-08-18T14:08:13;27.70;88.90
41678;DHT22;27364;49.026;8.712;2022-08-18T14:10:39;27.70;89.00
41678;DHT22;27364;49.026;8.712;2022-08-18T14:13:04;27.60;88.80
41678;DHT22;27364;49.026;8.712;2022-08-18T14:15:31;27.50;88.50
41678;DHT22;27364;49.026;8.712;2022-08-18T14:18:00;27.40;90.00
41678;DHT22;27364;49.026;8.712;2022-08-18T14:20:26;27.30;89.20
41678;DHT22;27364;49.026;8.712;2022-08-18T14:23:10;27.20;88.50
41678;DHT22;27364;49.026;8.712;2022-08-18T14:25:54;27.20;90.30
41678;DHT22;27364;49.026;8.712;2022-08-18T14:28:38;27.20;90.00
41678;DHT22;27364;49.026;8.712;2022-08-18T14:31:04;27.30;90.60
41678;DHT22;27364;49.026;8.712;2022-08-18T14:33:30;27.30;90.10
41678;DHT22;27364;49.026;8.712;2022-08-18T14:35:57;27.20;89.50
41678;DHT22;27364;49.026;8.712;2022-08-18T14:38:23;27.10;89.20
41678;DHT22;27364;49.026;8.712;2022-08-18T14:40:49;26.90;90.10
41678;DHT22;27364;49.026;8.712;2022-08-18T14:43:17;26.80;91.10
41678;DHT22;27364;49.026;8.712;2022-08-18T14:45:45;26.70;91.10
41678;DHT22;27364;49.026;8.712;2022-08-18T14:48:16;26.80;91.60
41678;DHT22;27364;49.026;8.712;2022-08-18T14:50:46;26.90;91.10
41678;DHT22;27364;49.026;8.712;2022-08-18T14:53:18;26.80;91.10
41678;DHT22;27364;49.026;8.712;2022-08-18T14:55:45;26.80;90.80
41678;DHT22;27364;49.026;8.712;2022-08-18T14:58:10;26.70;90.60
41678;DHT22;27364;49.026;8.712;2022-08-18T15:00:36;26.60;90.10
41678;DHT22;27364;49.026;8.712;2022-08-18T15:03:01;26.60;90.40
41678;DHT22;27364;49.026;8.712;2022-08-18T15:05:28;26.60;90.40
41678;DHT22;27364;49.026;8.712;2022-08-18T15:07:57;26.80;89.10
41678;DHT22;27364;49.026;8.712;2022-08-18T15:10:23;27.00;89.00
41678;DHT22;27364;49.026;8.712;2022-08-18T15:12:49;26.90;89.40
41678;DHT22;27364;49.026;8.712;2022-08-18T15:15:15;27.00;89.70
41678;DHT22;27364;49.026;8.712;2022-08-18T15:17:40;27.00;89.00
41678;DHT22;27364;49.026;8.712;2022-08-18T15:20:07;26.90;88.60
41678;DHT22;27364;49.026;8.712;2022-08-18T15:22:41;26.80;88.00
41678;DHT22;27364;49.026;8.712;2022-08-18T15:25:26;26.80;89.10
41678;DHT22;27364;49.026;8.712;2022-08-18T15:28:01;26.80;88.90
41678;DHT22;27364;49.026;8.712;2022-08-18T15:30:27;26.70;89.10
41678;DHT22;27364;49.026;8.712;2022-08-18T15:32:52;26.70;88.70
41678;DHT22;27364;49.026;8.712;2022-08-18T15:35:19;26.60;89.60
41678;DHT22;27364;49.026;8.712;2022-08-18T15:37:45;26.60;89.10
41678;DHT22;27364;49.026;8.712;2022-08-18T15:40:17;26.50;88.00
41678;DHT22;27364;49.026;8.712;2022-08-18T15:42:47;26.60;87.60
41678;DHT22;27364;49.026;8.712;2022-08-18T15:45:22;26.50;88.40
41678;DHT22;27364;49.026;8.712;2022-08-18T15:47:50;26.50;87.00
41678;DHT22;27364;49.026;8.712;2022-08-18T15:50:16;26.30;86.70
41678;DHT22;27364;49.026;8.712;2022-08-18T15:52:54;26.30;86.60
41678;DHT22;27364;49.026;8.712;2022-08-18T15:55:21;26.30;85.80
41678;DHT22;27364;49.026;8.712;2022-08-18T15:57:48;26.20;86.80
41678;DHT22;27364;49.026;8.712;2022-08-18T16:00:15;26.10;86.70
41678;DHT22;27364;49.026;8.712;2022-08-18T16:02:47;26.20;88.00
41678;DHT22;27364;49.026;8.712;2022-08-18T16:05:13;26.10;87.40
41678;DHT22;27364;49.026;8.712;2022-08-18T16:07:39;26.10;87.40
41678;DHT22;27364;49.026;8.712;2022-08-18T16:10:08;26.00;87.60
41678;DHT22;27364;49.026;8.712;2022-08-18T16:12:34;26.00;88.80
41678;DHT22;27364;49.026;8.712;2022-08-18T16:14:59;25.90;88.70
41678;DHT22;27364;49.026;8.712;2022-08-18T16:17:28;25.90;89.00
41678;DHT22;27364;49.026;8.712;2022-08-18T16:19:54;25.80;89.00
41678;DHT22;27364;49.026;8.712;2022-08-18T16:22:19;25.80;90.20
41678;DHT22;27364;49.026;8.712;2022-08-18T16:24:45;25.80;90.00
41678;DHT22;27364;49.026;8.712;2022-08-18T16:27:10;25.70;90.80
41678;DHT22;27364;49.026;8.712;2022-08-18T16:29:38;25.70;91.30
41678;DHT22;27364;49.026;8.712;2022-08-18T16:32:03;25.70;92.00
41678;DHT22;27364;49.026;8.712;2022-08-18T16:34:29;25.70;92.20
41678;DHT22;27364;49.026;8.712;2022-08-18T16:36:54;25.60;92.50
41678;DHT22;27364;49.026;8.712;2022-08-18T16:39:21;25.60;92.70
41678;DHT22;27364;49.026;8.712;2022-08-18T16:41:48;25.50;92.80
41678;DHT22;27364;49.026;8.712;2022-08-18T16:44:14;25.40;93.10
41678;DHT22;27364;49.026;8.712;2022-08-18T16:46:41;25.40;93.20
41678;DHT22;27364;49.026;8.712;2022-08-18T16:49:07;25.30;93.50
41678;DHT22;27364;49.026;8.712;2022-08-18T16:51:35;25.20;93.50
41678;DHT22;27364;49.026;8.712;2022-08-18T16:54:01;25.20;93.20
41678;DHT22;27364;49.026;8.712;2022-08-18T16:56:28;25.10;93.00
41678;DHT22;27364;49.026;8.712;2022-08-18T16:58:55;25.10;92.90
41678;DHT22;27364;49.026;8.712;2022-08-18T17:01:40;25.10;93.00
41678;DHT22;27364;49.026;8.712;2022-08-18T17:04:27;25.10;92.80
41678;DHT22;27364;49.026;8.712;2022-08-18T17:06:54;25.10;92.90
41678;DHT22;27364;49.026;8.712;2022-08-18T17:09:21;25.00;93.30
41678;DHT22;27364;49.026;8.712;2022-08-18T17:11:47;24.90;93.10
41678;DHT22;27364;49.026;8.712;2022-08-18T17:14:13;24.90;92.90
41678;DHT22;27364;49.026;8.712;2022-08-18T17:16:38;24.80;92.80
41678;DHT22;27364;49.026;8.712;2022-08-18T17:19:06;24.80;92.90
41678;DHT22;27364;49.026;8.712;2022-08-18T17:21:33;24.70;92.50
41678;DHT22;27364;49.026;8.712;2022-08-18T17:24:00;24.70;92.20
41678;DHT22;27364;49.026;8.712;2022-08-18T17:31:34;24.60;91.40
41678;DHT22;27364;49.026;8.712;2022-08-18T17:34:06;24.60;91.70
41678;DHT22;27364;49.026;8.712;2022-08-18T17:36:40;24.60;91.60
41678;DHT22;27364;49.026;8.712;2022-08-18T17:39:07;24.50;91.40
41678;DHT22;27364;49.026;8.712;2022-08-18T17:41:35;24.50;91.60
41678;DHT22;27364;49.026;8.712;2022-08-18T17:44:21;24.50;91.40
41678;DHT22;27364;49.026;8.712;2022-08-18T17:46:49;24.40;91.40
41678;DHT22;27364;49.026;8.712;2022-08-18T17:49:31;24.40;91.50
41678;DHT22;27364;49.026;8.712;2022-08-18T17:52:18;24.30;91.40
41678;DHT22;27364;49.026;8.712;2022-08-18T17:54:49;24.30;91.50
41678;DHT22;27364;49.026;8.712;2022-08-18T17:57:29;24.30;91.40
41678;DHT22;27364;49.026;8.712;2022-08-18T18:00:14;24.30;91.40
41678;DHT22;27364;49.026;8.712;2022-08-18T18:02:42;24.20;91.50
41678;DHT22;27364;49.026;8.712;2022-08-18T18:05:12;24.20;91.20
41678;DHT22;27364;49.026;8.712;2022-08-18T18:07:54;24.10;91.40
41678;DHT22;27364;49.026;8.712;2022-08-18T18:10:33;24.10;91.60
41678;DHT22;27364;49.026;8.712;2022-08-18T18:15:56;24.00;91.60
41678;DHT22;27364;49.026;8.712;2022-08-18T18:18:33;24.00;91.70
41678;DHT22;27364;49.026;8.712;2022-08-18T18:21:17;23.90;91.80
41678;DHT22;27364;49.026;8.712;2022-08-18T18:23:49;23.90;92.00
41678;DHT22;27364;49.026;8.712;2022-08-18T18:26:28;23.90;92.10